sensor_id;sensor_type;location;lat;lon;timestamp;P1;durP1;ratioP1;P2;durP2;ratioP2
11893;SDS011;6006;49.696;8.662;2023-09-18T00:00:29;3.22;;;1.67;;
11893;SDS011;6006;49.696;8.662;2023-09-18T00:02:57;2.17;;;1.70;;
11893;SDS011;6006;49.696;8.662;2023-09-18T00:05:27;2.10;;;2.00;;
11893;SDS011;6006;49.696;8.662;2023-09-18T00:07:55;2.65;;;1.80;;
11893;SDS011;6006;49.696;8.662;2023-09-18T00:10:22;1.98;;;1.75;;
11893;SDS011;6006;49.696;8.662;2023-09-18T00:12:50;3.00;;;2.30;;
11893;SDS011;6006;49.696;8.662;2023-09-18T00:15:16;4.10;;;1.98;;
11893;SDS011;6006;49.696;8.662;2023-09-18T00:17:43;2.42;;;2.00;;
11893;SDS011;6006;49.696;8.662;2023-09-18T00:20:10;2.40;;;1.73;;
11893;SDS011;6006;49.696;8.662;2023-09-18T00:22:38;4.05;;;1.73;;
11893;SDS011;6006;49.696;8.662;2023-09-18T00:25:07;2.08;;;1.98;;
11893;SDS011;6006;49.696;8.662;2023-09-18T00:27:34;2.00;;;1.90;;
11893;SDS011;6006;49.696;8.662;2023-09-18T00:30:01;2.40;;;2.13;;
11893;SDS011;6006;49.696;8.662;2023-09-18T00:32:28;3.05;;;2.05;;
11893;SDS011;6006;49.696;8.662;2023-09-18T00:34:55;2.83;;;2.10;;
11893;SDS011;6006;49.696;8.662;2023-09-18T00:37:22;2.22;;;1.98;;
11893;SDS011;6006;49.696;8.662;2023-09-18T00:39:49;2.13;;;1.92;;
11893;SDS011;6006;49.696;8.662;2023-09-18T00:42:17;2.35;;;2.13;;
11893;SDS011;6006;49.696;8.662;2023-09-18T00:44:46;2.20;;;1.95;;
11893;SDS011;6006;49.696;8.662;2023-09-18T00:47:13;2.78;;;2.00;;
11893;SDS011;6006;49.696;8.662;2023-09-18T00:49:41;2.35;;;2.15;;
11893;SDS011;6006;49.696;8.662;2023-09-18T00:52:11;3.35;;;2.50;;
11893;SDS011;6006;49.696;8.662;2023-09-18T00:54:39;2.30;;;2.10;;
11893;SDS011;6006;49.696;8.662;2023-09-18T00:57:07;2.53;;;2.33;;
11893;SDS011;6006;49.696;8.662;2023-09-18T00:59:36;2.30;;;2.10;;
11893;SDS011;6006;49.696;8.662;2023-09-18T01:02:03;2.05;;;1.90;;
11893;SDS011;6006;49.696;8.662;2023-09-18T01:04:30;2.05;;;1.95;;
11893;SDS011;6006;49.696;8.662;2023-09-18T01:06:59;2.30;;;2.20;;
11893;SDS011;6006;49.696;8.662;2023-09-18T01:09:28;2.47;;;2.08;;
11893;SDS011;6006;49.696;8.662;2023-09-18T01:11:59;2.10;;;1.92;;
11893;SDS011;6006;49.696;8.662;2023-09-18T01:14:31;3.42;;;2.05;;
11893;SDS011;6006;49.696;8.662;2023-09-18T01:17:04;2.00;;;1.90;;
11893;SDS011;6006;49.696;8.662;2023-09-18T01:19:37;3.35;;;1.98;;
11893;SDS011;6006;49.696;8.662;2023-09-18T01:22:05;2.30;;;2.10;;
11893;SDS011;6006;49.696;8.662;2023-09-18T01:24:34;3.17;;;2.03;;
11893;SDS011;6006;49.696;8.662;2023-09-18T01:27:02;2.40;;;2.20;;
11893;SDS011;6006;49.696;8.662;2023-09-18T01:29:30;2.13;;;2.00;;
11893;SDS011;6006;49.696;8.662;2023-09-18T01:31:57;5.45;;;1.98;;
11893;SDS011;6006;49.696;8.662;2023-09-18T01:34:25;3.05;;;2.30;;
11893;SDS011;6006;49.696;8.662;2023-09-18T01:36:57;2.13;;;1.77;;
11893;SDS011;6006;49.696;8.662;2023-09-18T01:39:25;2.45;;;2.20;;
11893;SDS011;6006;49.696;8.662;2023-09-18T01:41:57;2.40;;;2.20;;
11893;SDS011;6006;49.696;8.662;2023-09-18T01:44:26;2.40;;;1.83;;
11893;SDS011;6006;49.696;8.662;2023-09-18T01:46:53;2.47;;;2.20;;
11893;SDS011;6006;49.696;8.662;2023-09-18T01:49:28;7.90;;;2.50;;
11893;SDS011;6006;49.696;8.662;2023-09-18T01:51:56;2.85;;;2.25;;
11893;SDS011;6006;49.696;8.662;2023-09-18T01:54:23;3.17;;;2.33;;
11893;SDS011;6006;49.696;8.662;2023-09-18T01:56:50;2.72;;;2.53;;
11893;SDS011;6006;49.696;8.662;2023-09-18T01:59:19;5.50;;;2.70;;
11893;SDS011;6006;49.696;8.662;2023-09-18T02:01:48;2.80;;;2.55;;
11893;SDS011;6006;49.696;8.662;2023-09-18T02:04:16;3.03;;;2.33;;
11893;SDS011;6006;49.696;8.662;2023-09-18T02:06:43;5.35;;;2.55;;
11893;SDS011;6006;49.696;8.662;2023-09-18T02:09:10;4.05;;;3.15;;
11893;SDS011;6006;49.696;8.662;2023-09-18T02:11:37;4.10;;;2.60;;
11893;SDS011;6006;49.696;8.662;2023-09-18T02:14:05;4.28;;;3.08;;
11893;SDS011;6006;49.696;8.662;2023-09-18T02:16:34;5.50;;;2.63;;
11893;SDS011;6006;49.696;8.662;2023-09-18T02:19:01;2.70;;;2.50;;
11893;SDS011;6006;49.696;8.662;2023-09-18T02:21:29;3.20;;;2.75;;
11893;SDS011;6006;49.696;8.662;2023-09-18T02:23:56;5.53;;;2.92;;
11893;SDS011;6006;49.696;8.662;2023-09-18T02:26:23;4.07;;;3.25;;
11893;SDS011;6006;49.696;8.662;2023-09-18T02:28:51;4.63;;;3.53;;
11893;SDS011;6006;49.696;8.662;2023-09-18T02:31:19;3.25;;;2.95;;
11893;SDS011;6006;49.696;8.662;2023-09-18T02:33:49;4.40;;;3.33;;
11893;SDS011;6006;49.696;8.662;2023-09-18T02:36:16;4.28;;;3.42;;
11893;SDS011;6006;49.696;8.662;2023-09-18T02:38:43;3.47;;;2.88;;
11893;SDS011;6006;49.696;8.662;2023-09-18T02:41:10;3.58;;;3.28;;
11893;SDS011;6006;49.696;8.662;2023-09-18T02:43:37;3.92;;;3.50;;
11893;SDS011;6006;49.696;8.662;2023-09-18T02:46:04;8.32;;;3.40;;
11893;SDS011;6006;49.696;8.662;2023-09-18T02:48:31;4.72;;;3.30;;
11893;SDS011;6006;49.696;8.662;2023-09-18T02:51:00;5.32;;;3.50;;
11893;SDS011;6006;49.696;8.662;2023-09-18T02:53:27;4.20;;;3.05;;
11893;SDS011;6006;49.696;8.662;2023-09-18T02:55:54;4.82;;;3.40;;
11893;SDS011;6006;49.696;8.662;2023-09-18T02:58:22;4.40;;;2.90;;
11893;SDS011;6006;49.696;8.662;2023-09-18T03:00:51;4.07;;;3.25;;
11893;SDS011;6006;49.696;8.662;2023-09-18T03:03:19;5.00;;;3.50;;
11893;SDS011;6006;49.696;8.662;2023-09-18T03:05:46;4.32;;;3.25;;
11893;SDS011;6006;49.696;8.662;2023-09-18T03:08:14;3.92;;;3.53;;
11893;SDS011;6006;49.696;8.662;2023-09-18T03:10:42;7.15;;;3.45;;
11893;SDS011;6006;49.696;8.662;2023-09-18T03:13:10;3.25;;;3.00;;
11893;SDS011;6006;49.696;8.662;2023-09-18T03:15:41;3.42;;;3.10;;
11893;SDS011;6006;49.696;8.662;2023-09-18T03:18:11;4.60;;;3.75;;
11893;SDS011;6006;49.696;8.662;2023-09-18T03:20:38;5.50;;;5.10;;
11893;SDS011;6006;49.696;8.662;2023-09-18T03:23:05;3.67;;;3.20;;
11893;SDS011;6006;49.696;8.662;2023-09-18T03:25:35;4.32;;;3.58;;
11893;SDS011;6006;49.696;8.662;2023-09-18T03:28:02;4.15;;;3.78;;
11893;SDS011;6006;49.696;8.662;2023-09-18T03:30:30;5.88;;;3.40;;
11893;SDS011;6006;49.696;8.662;2023-09-18T03:32:57;4.85;;;3.28;;
11893;SDS011;6006;49.696;8.662;2023-09-18T03:35:24;3.75;;;3.38;;
11893;SDS011;6006;49.696;8.662;2023-09-18T03:37:52;5.38;;;3.20;;
11893;SDS011;6006;49.696;8.662;2023-09-18T03:40:20;4.18;;;3.22;;
11893;SDS011;6006;49.696;8.662;2023-09-18T03:42:49;4.53;;;3.50;;
11893;SDS011;6006;49.696;8.662;2023-09-18T03:45:16;3.42;;;3.13;;
11893;SDS011;6006;49.696;8.662;2023-09-18T03:47:44;4.30;;;3.42;;
11893;SDS011;6006;49.696;8.662;2023-09-18T03:50:11;5.80;;;3.50;;
11893;SDS011;6006;49.696;8.662;2023-09-18T03:52:38;4.90;;;3.30;;
11893;SDS011;6006;49.696;8.662;2023-09-18T03:55:06;4.93;;;3.90;;
11893;SDS011;6006;49.696;8.662;2023-09-18T03:57:34;6.47;;;3.53;;
11893;SDS011;6006;49.696;8.662;2023-09-18T04:00:03;5.15;;;3.42;;
11893;SDS011;6006;49.696;8.662;2023-09-18T04:02:32;3.38;;;3.03;;
11893;SDS011;6006;49.696;8.662;2023-09-18T04:05:00;2.90;;;2.70;;
11893;SDS011;6006;49.696;8.662;2023-09-18T04:07:28;6.50;;;3.22;;
11893;SDS011;6006;49.696;8.662;2023-09-18T04:09:55;6.35;;;3.72;;
11893;SDS011;6006;49.696;8.662;2023-09-18T04:12:22;5.95;;;3.40;;
11893;SDS011;6006;49.696;8.662;2023-09-18T04:14:49;7.13;;;3.65;;
11893;SDS011;6006;49.696;8.662;2023-09-18T04:17:17;7.05;;;3.42;;
11893;SDS011;6006;49.696;8.662;2023-09-18T04:19:45;7.68;;;3.00;;
11893;SDS011;6006;49.696;8.662;2023-09-18T04:22:13;5.20;;;2.53;;
11893;SDS011;6006;49.696;8.662;2023-09-18T04:24:40;4.72;;;2.20;;
11893;SDS011;6006;49.696;8.662;2023-09-18T04:27:07;5.00;;;2.42;;
11893;SDS011;6006;49.696;8.662;2023-09-18T04:29:35;5.57;;;2.60;;
11893;SDS011;6006;49.696;8.662;2023-09-18T04:32:02;7.72;;;2.83;;
11893;SDS011;6006;49.696;8.662;2023-09-18T04:34:31;5.82;;;2.28;;
11893;SDS011;6006;49.696;8.662;2023-09-18T04:37:00;5.57;;;2.65;;
11893;SDS011;6006;49.696;8.662;2023-09-18T04:39:28;5.40;;;2.65;;
11893;SDS011;6006;49.696;8.662;2023-09-18T04:41:58;5.00;;;2.22;;
11893;SDS011;6006;49.696;8.662;2023-09-18T04:44:29;5.35;;;2.85;;
11893;SDS011;6006;49.696;8.662;2023-09-18T04:46:56;5.22;;;2.40;;
11893;SDS011;6006;49.696;8.662;2023-09-18T04:49:23;3.97;;;2.28;;
11893;SDS011;6006;49.696;8.662;2023-09-18T04:51:52;6.05;;;2.42;;
11893;SDS011;6006;49.696;8.662;2023-09-18T04:54:19;4.72;;;2.55;;
11893;SDS011;6006;49.696;8.662;2023-09-18T04:56:46;4.97;;;3.03;;
11893;SDS011;6006;49.696;8.662;2023-09-18T04:59:13;5.90;;;2.28;;
11893;SDS011;6006;49.696;8.662;2023-09-18T05:01:40;3.83;;;2.53;;
11893;SDS011;6006;49.696;8.662;2023-09-18T05:04:07;5.15;;;2.35;;
11893;SDS011;6006;49.696;8.662;2023-09-18T05:06:34;4.30;;;2.25;;
11893;SDS011;6006;49.696;8.662;2023-09-18T05:09:02;7.18;;;2.85;;
11893;SDS011;6006;49.696;8.662;2023-09-18T05:11:30;4.63;;;2.30;;
11893;SDS011;6006;49.696;8.662;2023-09-18T05:13:57;5.03;;;2.42;;
11893;SDS011;6006;49.696;8.662;2023-09-18T05:16:24;5.78;;;2.17;;
11893;SDS011;6006;49.696;8.662;2023-09-18T05:18:51;5.13;;;2.45;;
11893;SDS011;6006;49.696;8.662;2023-09-18T05:21:18;7.10;;;2.50;;
11893;SDS011;6006;49.696;8.662;2023-09-18T05:23:49;3.70;;;2.38;;
11893;SDS011;6006;49.696;8.662;2023-09-18T05:26:18;3.53;;;2.17;;
11893;SDS011;6006;49.696;8.662;2023-09-18T05:28:48;7.05;;;2.35;;
11893;SDS011;6006;49.696;8.662;2023-09-18T05:31:15;8.43;;;2.47;;
11893;SDS011;6006;49.696;8.662;2023-09-18T05:33:42;8.40;;;2.60;;
11893;SDS011;6006;49.696;8.662;2023-09-18T05:36:09;10.35;;;2.65;;
11893;SDS011;6006;49.696;8.662;2023-09-18T05:38:36;4.97;;;2.75;;
11893;SDS011;6006;49.696;8.662;2023-09-18T05:41:02;10.13;;;2.60;;
11893;SDS011;6006;49.696;8.662;2023-09-18T05:43:31;5.03;;;2.53;;
11893;SDS011;6006;49.696;8.662;2023-09-18T05:45:58;7.22;;;2.88;;
11893;SDS011;6006;49.696;8.662;2023-09-18T05:48:25;6.50;;;3.30;;
11893;SDS011;6006;49.696;8.662;2023-09-18T05:50:52;6.78;;;3.00;;
11893;SDS011;6006;49.696;8.662;2023-09-18T05:53:20;6.35;;;2.72;;
11893;SDS011;6006;49.696;8.662;2023-09-18T05:55:47;4.47;;;2.92;;
11893;SDS011;6006;49.696;8.662;2023-09-18T05:58:14;5.00;;;2.97;;
11893;SDS011;6006;49.696;8.662;2023-09-18T06:00:44;3.78;;;2.60;;
11893;SDS011;6006;49.696;8.662;2023-09-18T06:03:11;5.97;;;2.83;;
11893;SDS011;6006;49.696;8.662;2023-09-18T06:05:40;3.78;;;2.60;;
11893;SDS011;6006;49.696;8.662;2023-09-18T06:08:07;4.47;;;2.92;;
11893;SDS011;6006;49.696;8.662;2023-09-18T06:10:34;8.73;;;2.90;;
11893;SDS011;6006;49.696;8.662;2023-09-18T06:13:01;8.77;;;2.90;;
11893;SDS011;6006;49.696;8.662;2023-09-18T06:15:29;6.72;;;2.60;;
11893;SDS011;6006;49.696;8.662;2023-09-18T06:17:57;5.45;;;2.28;;
11893;SDS011;6006;49.696;8.662;2023-09-18T06:20:24;4.60;;;1.77;;
11893;SDS011;6006;49.696;8.662;2023-09-18T06:22:51;4.15;;;1.95;;
11893;SDS011;6006;49.696;8.662;2023-09-18T06:25:18;5.13;;;2.35;;
11893;SDS011;6006;49.696;8.662;2023-09-18T06:27:45;4.25;;;1.70;;
11893;SDS011;6006;49.696;8.662;2023-09-18T06:30:12;7.22;;;2.15;;
11893;SDS011;6006;49.696;8.662;2023-09-18T06:32:39;3.25;;;2.05;;
11893;SDS011;6006;49.696;8.662;2023-09-18T06:35:08;3.88;;;2.03;;
11893;SDS011;6006;49.696;8.662;2023-09-18T06:37:35;3.15;;;2.03;;
11893;SDS011;6006;49.696;8.662;2023-09-18T06:40:01;6.47;;;2.00;;
11893;SDS011;6006;49.696;8.662;2023-09-18T06:42:30;4.55;;;2.33;;
11893;SDS011;6006;49.696;8.662;2023-09-18T06:44:57;3.17;;;2.28;;
11893;SDS011;6006;49.696;8.662;2023-09-18T06:47:26;6.50;;;2.13;;
11893;SDS011;6006;49.696;8.662;2023-09-18T06:49:53;8.05;;;2.35;;
11893;SDS011;6006;49.696;8.662;2023-09-18T06:52:21;4.88;;;1.88;;
11893;SDS011;6006;49.696;8.662;2023-09-18T06:54:50;3.90;;;1.88;;
11893;SDS011;6006;49.696;8.662;2023-09-18T06:57:17;3.90;;;2.08;;
11893;SDS011;6006;49.696;8.662;2023-09-18T06:59:46;5.47;;;2.00;;
11893;SDS011;6006;49.696;8.662;2023-09-18T07:02:13;5.32;;;2.00;;
11893;SDS011;6006;49.696;8.662;2023-09-18T07:04:41;6.53;;;2.00;;
11893;SDS011;6006;49.696;8.662;2023-09-18T07:07:10;5.25;;;2.08;;
11893;SDS011;6006;49.696;8.662;2023-09-18T07:09:39;3.90;;;1.60;;
11893;SDS011;6006;49.696;8.662;2023-09-18T07:12:06;2.55;;;1.58;;
11893;SDS011;6006;49.696;8.662;2023-09-18T07:14:34;5.38;;;1.83;;
11893;SDS011;6006;49.696;8.662;2023-09-18T07:17:01;6.10;;;2.00;;
11893;SDS011;6006;49.696;8.662;2023-09-18T07:19:28;5.78;;;2.03;;
11893;SDS011;6006;49.696;8.662;2023-09-18T07:21:55;3.72;;;1.70;;
11893;SDS011;6006;49.696;8.662;2023-09-18T07:24:22;5.78;;;2.40;;
11893;SDS011;6006;49.696;8.662;2023-09-18T07:26:50;5.07;;;1.90;;
11893;SDS011;6006;49.696;8.662;2023-09-18T07:29:17;6.53;;;2.05;;
11893;SDS011;6006;49.696;8.662;2023-09-18T07:31:45;4.20;;;1.63;;
11893;SDS011;6006;49.696;8.662;2023-09-18T07:34:13;5.25;;;2.20;;
11893;SDS011;6006;49.696;8.662;2023-09-18T07:36:42;4.43;;;1.70;;
11893;SDS011;6006;49.696;8.662;2023-09-18T07:39:09;3.00;;;1.63;;
11893;SDS011;6006;49.696;8.662;2023-09-18T07:41:36;4.10;;;1.65;;
11893;SDS011;6006;49.696;8.662;2023-09-18T07:44:06;2.58;;;1.63;;
11893;SDS011;6006;49.696;8.662;2023-09-18T07:46:32;4.78;;;1.90;;
11893;SDS011;6006;49.696;8.662;2023-09-18T07:49:00;7.78;;;1.73;;
11893;SDS011;6006;49.696;8.662;2023-09-18T07:51:27;3.58;;;1.42;;
11893;SDS011;6006;49.696;8.662;2023-09-18T07:53:55;4.47;;;2.17;;
11893;SDS011;6006;49.696;8.662;2023-09-18T07:56:22;3.35;;;1.75;;
11893;SDS011;6006;49.696;8.662;2023-09-18T07:58:48;5.20;;;1.90;;
11893;SDS011;6006;49.696;8.662;2023-09-18T08:01:17;4.97;;;1.65;;
11893;SDS011;6006;49.696;8.662;2023-09-18T08:03:46;3.60;;;1.65;;
11893;SDS011;6006;49.696;8.662;2023-09-18T08:06:13;4.65;;;1.42;;
11893;SDS011;6006;49.696;8.662;2023-09-18T08:08:41;5.38;;;1.40;;
11893;SDS011;6006;49.696;8.662;2023-09-18T08:11:08;4.90;;;1.75;;
11893;SDS011;6006;49.696;8.662;2023-09-18T08:13:35;1.95;;;1.23;;
11893;SDS011;6006;49.696;8.662;2023-09-18T08:16:02;3.33;;;1.17;;
11893;SDS011;6006;49.696;8.662;2023-09-18T08:18:31;4.68;;;1.20;;
11893;SDS011;6006;49.696;8.662;2023-09-18T08:20:58;4.38;;;1.30;;
11893;SDS011;6006;49.696;8.662;2023-09-18T08:23:25;3.88;;;1.40;;
11893;SDS011;6006;49.696;8.662;2023-09-18T08:25:52;1.88;;;1.00;;
11893;SDS011;6006;49.696;8.662;2023-09-18T08:28:22;3.65;;;1.40;;
11893;SDS011;6006;49.696;8.662;2023-09-18T08:30:49;1.95;;;1.10;;
11893;SDS011;6006;49.696;8.662;2023-09-18T08:33:16;5.00;;;1.60;;
11893;SDS011;6006;49.696;8.662;2023-09-18T08:35:44;1.83;;;1.25;;
11893;SDS011;6006;49.696;8.662;2023-09-18T08:38:12;1.67;;;0.88;;
11893;SDS011;6006;49.696;8.662;2023-09-18T08:40:40;3.97;;;1.50;;
11893;SDS011;6006;49.696;8.662;2023-09-18T08:43:07;4.03;;;1.48;;
11893;SDS011;6006;49.696;8.662;2023-09-18T08:45:38;2.55;;;1.30;;
11893;SDS011;6006;49.696;8.662;2023-09-18T08:48:09;2.65;;;1.02;;
11893;SDS011;6006;49.696;8.662;2023-09-18T08:50:37;2.15;;;0.93;;
11893;SDS011;6006;49.696;8.662;2023-09-18T08:53:06;2.45;;;0.88;;
11893;SDS011;6006;49.696;8.662;2023-09-18T08:55:33;2.63;;;1.05;;
11893;SDS011;6006;49.696;8.662;2023-09-18T08:58:01;3.22;;;1.15;;
11893;SDS011;6006;49.696;8.662;2023-09-18T09:00:27;1.50;;;1.00;;
11893;SDS011;6006;49.696;8.662;2023-09-18T09:02:55;1.73;;;0.70;;
11893;SDS011;6006;49.696;8.662;2023-09-18T09:05:22;4.25;;;1.02;;
11893;SDS011;6006;49.696;8.662;2023-09-18T09:07:49;2.58;;;1.38;;
11893;SDS011;6006;49.696;8.662;2023-09-18T09:10:18;7.13;;;1.70;;
11893;SDS011;6006;49.696;8.662;2023-09-18T09:12:52;3.40;;;1.23;;
11893;SDS011;6006;49.696;8.662;2023-09-18T09:15:20;2.75;;;1.23;;
11893;SDS011;6006;49.696;8.662;2023-09-18T09:17:48;4.72;;;1.20;;
11893;SDS011;6006;49.696;8.662;2023-09-18T09:20:16;2.35;;;1.10;;
11893;SDS011;6006;49.696;8.662;2023-09-18T09:22:44;1.67;;;0.80;;
11893;SDS011;6006;49.696;8.662;2023-09-18T09:25:22;3.03;;;0.93;;
11893;SDS011;6006;49.696;8.662;2023-09-18T09:27:51;2.35;;;1.05;;
11893;SDS011;6006;49.696;8.662;2023-09-18T09:30:19;2.97;;;0.90;;
11893;SDS011;6006;49.696;8.662;2023-09-18T09:32:48;2.85;;;1.85;;
11893;SDS011;6006;49.696;8.662;2023-09-18T09:35:22;1.05;;;0.90;;
11893;SDS011;6006;49.696;8.662;2023-09-18T09:37:52;2.67;;;1.10;;
11893;SDS011;6006;49.696;8.662;2023-09-18T09:40:20;5.20;;;0.95;;
11893;SDS011;6006;49.696;8.662;2023-09-18T09:42:50;2.22;;;0.85;;
11893;SDS011;6006;49.696;8.662;2023-09-18T09:45:19;2.05;;;1.10;;
11893;SDS011;6006;49.696;8.662;2023-09-18T09:47:46;2.42;;;1.23;;
11893;SDS011;6006;49.696;8.662;2023-09-18T09:50:15;4.40;;;1.50;;
11893;SDS011;6006;49.696;8.662;2023-09-18T09:52:44;1.88;;;1.00;;
11893;SDS011;6006;49.696;8.662;2023-09-18T09:55:20;2.55;;;1.23;;
11893;SDS011;6006;49.696;8.662;2023-09-18T09:57:51;4.40;;;1.10;;
11893;SDS011;6006;49.696;8.662;2023-09-18T10:00:19;1.25;;;0.82;;
11893;SDS011;6006;49.696;8.662;2023-09-18T10:02:56;2.28;;;1.05;;
11893;SDS011;6006;49.696;8.662;2023-09-18T10:05:24;1.90;;;1.10;;
11893;SDS011;6006;49.696;8.662;2023-09-18T10:07:56;1.40;;;0.98;;
11893;SDS011;6006;49.696;8.662;2023-09-18T10:10:27;1.75;;;1.10;;
11893;SDS011;6006;49.696;8.662;2023-09-18T10:12:57;0.82;;;0.82;;
11893;SDS011;6006;49.696;8.662;2023-09-18T10:15:29;4.10;;;1.20;;
11893;SDS011;6006;49.696;8.662;2023-09-18T10:17:58;2.50;;;1.38;;
11893;SDS011;6006;49.696;8.662;2023-09-18T10:20:28;2.88;;;1.10;;
11893;SDS011;6006;49.696;8.662;2023-09-18T10:22:56;2.08;;;1.02;;
11893;SDS011;6006;49.696;8.662;2023-09-18T10:25:29;2.30;;;0.95;;
11893;SDS011;6006;49.696;8.662;2023-09-18T10:27:57;1.05;;;0.98;;
11893;SDS011;6006;49.696;8.662;2023-09-18T10:30:28;2.63;;;1.10;;
11893;SDS011;6006;49.696;8.662;2023-09-18T10:32:59;2.83;;;0.90;;
11893;SDS011;6006;49.696;8.662;2023-09-18T10:35:26;2.30;;;1.17;;
11893;SDS011;6006;49.696;8.662;2023-09-18T10:37:54;2.67;;;0.90;;
11893;SDS011;6006;49.696;8.662;2023-09-18T10:40:21;2.85;;;0.80;;
11893;SDS011;6006;49.696;8.662;2023-09-18T10:42:52;2.35;;;0.73;;
11893;SDS011;6006;49.696;8.662;2023-09-18T10:45:23;3.47;;;1.30;;
11893;SDS011;6006;49.696;8.662;2023-09-18T10:47:51;2.22;;;0.77;;
11893;SDS011;6006;49.696;8.662;2023-09-18T10:50:22;2.58;;;0.90;;
11893;SDS011;6006;49.696;8.662;2023-09-18T10:52:50;2.60;;;1.10;;
11893;SDS011;6006;49.696;8.662;2023-09-18T10:55:17;2.72;;;1.13;;
11893;SDS011;6006;49.696;8.662;2023-09-18T10:57:51;3.15;;;1.50;;
11893;SDS011;6006;49.696;8.662;2023-09-18T11:00:21;3.25;;;0.95;;
11893;SDS011;6006;49.696;8.662;2023-09-18T11:02:51;2.00;;;0.82;;
11893;SDS011;6006;49.696;8.662;2023-09-18T11:05:32;2.95;;;0.98;;
11893;SDS011;6006;49.696;8.662;2023-09-18T11:10:55;4.55;;;1.05;;
11893;SDS011;6006;49.696;8.662;2023-09-18T11:13:30;3.45;;;1.15;;
11893;SDS011;6006;49.696;8.662;2023-09-18T11:16:00;2.97;;;0.93;;
11893;SDS011;6006;49.696;8.662;2023-09-18T11:18:39;0.95;;;0.65;;
11893;SDS011;6006;49.696;8.662;2023-09-18T11:21:07;2.50;;;0.90;;
11893;SDS011;6006;49.696;8.662;2023-09-18T11:23:35;2.47;;;1.25;;
11893;SDS011;6006;49.696;8.662;2023-09-18T11:26:07;3.42;;;1.00;;
11893;SDS011;6006;49.696;8.662;2023-09-18T11:28:35;2.85;;;0.90;;
11893;SDS011;6006;49.696;8.662;2023-09-18T11:31:03;3.15;;;1.00;;
11893;SDS011;6006;49.696;8.662;2023-09-18T11:33:31;1.50;;;0.82;;
11893;SDS011;6006;49.696;8.662;2023-09-18T11:36:01;2.15;;;1.20;;
11893;SDS011;6006;49.696;8.662;2023-09-18T11:38:31;4.82;;;1.45;;
11893;SDS011;6006;49.696;8.662;2023-09-18T11:41:01;2.67;;;1.27;;
11893;SDS011;6006;49.696;8.662;2023-09-18T11:43:49;2.50;;;1.70;;
11893;SDS011;6006;49.696;8.662;2023-09-18T11:46:19;1.48;;;0.80;;
11893;SDS011;6006;49.696;8.662;2023-09-18T11:48:48;1.50;;;1.20;;
11893;SDS011;6006;49.696;8.662;2023-09-18T11:51:20;2.67;;;1.10;;
11893;SDS011;6006;49.696;8.662;2023-09-18T11:53:49;3.83;;;1.00;;
11893;SDS011;6006;49.696;8.662;2023-09-18T11:56:21;4.30;;;1.95;;
11893;SDS011;6006;49.696;8.662;2023-09-18T11:58:50;1.33;;;1.10;;
11893;SDS011;6006;49.696;8.662;2023-09-18T12:01:20;2.97;;;1.02;;
11893;SDS011;6006;49.696;8.662;2023-09-18T12:03:52;2.63;;;1.17;;
11893;SDS011;6006;49.696;8.662;2023-09-18T12:06:19;3.03;;;1.30;;
11893;SDS011;6006;49.696;8.662;2023-09-18T12:08:47;2.28;;;1.10;;
11893;SDS011;6006;49.696;8.662;2023-09-18T12:11:17;2.83;;;1.23;;
11893;SDS011;6006;49.696;8.662;2023-09-18T12:13:44;2.47;;;1.20;;
11893;SDS011;6006;49.696;8.662;2023-09-18T12:16:13;3.08;;;1.25;;
11893;SDS011;6006;49.696;8.662;2023-09-18T12:18:44;2.17;;;1.25;;
11893;SDS011;6006;49.696;8.662;2023-09-18T12:21:13;2.30;;;1.00;;
11893;SDS011;6006;49.696;8.662;2023-09-18T12:23:42;4.03;;;1.25;;
11893;SDS011;6006;49.696;8.662;2023-09-18T12:26:11;2.15;;;0.80;;
11893;SDS011;6006;49.696;8.662;2023-09-18T12:28:40;1.35;;;1.05;;
11893;SDS011;6006;49.696;8.662;2023-09-18T12:31:09;1.95;;;1.00;;
11893;SDS011;6006;49.696;8.662;2023-09-18T12:33:38;2.50;;;1.00;;
11893;SDS011;6006;49.696;8.662;2023-09-18T12:36:06;0.93;;;0.85;;
11893;SDS011;6006;49.696;8.662;2023-09-18T12:38:34;2.90;;;0.75;;
11893;SDS011;6006;49.696;8.662;2023-09-18T12:41:03;3.35;;;1.00;;
11893;SDS011;6006;49.696;8.662;2023-09-18T12:43:35;1.55;;;1.00;;
11893;SDS011;6006;49.696;8.662;2023-09-18T12:46:04;2.35;;;1.30;;
11893;SDS011;6006;49.696;8.662;2023-09-18T12:48:31;0.93;;;0.70;;
11893;SDS011;6006;49.696;8.662;2023-09-18T12:51:04;2.15;;;1.02;;
11893;SDS011;6006;49.696;8.662;2023-09-18T12:53:32;2.15;;;1.20;;
11893;SDS011;6006;49.696;8.662;2023-09-18T12:56:06;4.25;;;1.08;;
11893;SDS011;6006;49.696;8.662;2023-09-18T12:58:34;3.40;;;1.08;;
11893;SDS011;6006;49.696;8.662;2023-09-18T13:01:04;1.55;;;1.00;;
11893;SDS011;6006;49.696;8.662;2023-09-18T13:03:35;2.42;;;0.82;;
11893;SDS011;6006;49.696;8.662;2023-09-18T13:06:10;1.95;;;0.98;;
11893;SDS011;6006;49.696;8.662;2023-09-18T13:08:38;2.10;;;0.90;;
11893;SDS011;6006;49.696;8.662;2023-09-18T13:11:05;1.42;;;1.33;;
11893;SDS011;6006;49.696;8.662;2023-09-18T13:13:32;3.60;;;1.17;;
11893;SDS011;6006;49.696;8.662;2023-09-18T13:16:00;1.77;;;1.02;;
11893;SDS011;6006;49.696;8.662;2023-09-18T13:18:30;1.00;;;0.77;;
11893;SDS011;6006;49.696;8.662;2023-09-18T13:20:57;3.00;;;0.70;;
11893;SDS011;6006;49.696;8.662;2023-09-18T13:23:30;1.52;;;0.80;;
11893;SDS011;6006;49.696;8.662;2023-09-18T13:26:01;1.88;;;0.93;;
11893;SDS011;6006;49.696;8.662;2023-09-18T13:28:29;1.15;;;0.75;;
11893;SDS011;6006;49.696;8.662;2023-09-18T13:30:58;1.85;;;0.90;;
11893;SDS011;6006;49.696;8.662;2023-09-18T13:33:25;1.15;;;0.80;;
11893;SDS011;6006;49.696;8.662;2023-09-18T13:35:52;3.08;;;1.27;;
11893;SDS011;6006;49.696;8.662;2023-09-18T13:38:21;1.23;;;0.77;;
11893;SDS011;6006;49.696;8.662;2023-09-18T13:40:49;0.82;;;0.70;;
11893;SDS011;6006;49.696;8.662;2023-09-18T13:43:16;2.17;;;0.88;;
11893;SDS011;6006;49.696;8.662;2023-09-18T13:45:46;4.20;;;1.00;;
11893;SDS011;6006;49.696;8.662;2023-09-18T13:48:13;1.35;;;0.85;;
11893;SDS011;6006;49.696;8.662;2023-09-18T13:50:41;1.23;;;0.90;;
11893;SDS011;6006;49.696;8.662;2023-09-18T13:53:08;1.83;;;0.70;;
11893;SDS011;6006;49.696;8.662;2023-09-18T13:55:35;2.10;;;0.82;;
11893;SDS011;6006;49.696;8.662;2023-09-18T13:58:03;2.78;;;0.88;;
11893;SDS011;6006;49.696;8.662;2023-09-18T14:00:31;2.50;;;0.80;;
11893;SDS011;6006;49.696;8.662;2023-09-18T14:02:58;2.20;;;0.75;;
11893;SDS011;6006;49.696;8.662;2023-09-18T14:05:25;4.47;;;1.13;;
11893;SDS011;6006;49.696;8.662;2023-09-18T14:07:54;2.13;;;1.00;;
11893;SDS011;6006;49.696;8.662;2023-09-18T14:10:25;0.95;;;0.90;;
11893;SDS011;6006;49.696;8.662;2023-09-18T14:12:52;2.30;;;0.77;;
11893;SDS011;6006;49.696;8.662;2023-09-18T14:15:20;4.85;;;1.10;;
11893;SDS011;6006;49.696;8.662;2023-09-18T14:17:47;1.58;;;0.88;;
11893;SDS011;6006;49.696;8.662;2023-09-18T14:20:15;1.27;;;1.02;;
11893;SDS011;6006;49.696;8.662;2023-09-18T14:22:44;2.22;;;0.95;;
11893;SDS011;6006;49.696;8.662;2023-09-18T14:25:11;1.80;;;0.82;;
11893;SDS011;6006;49.696;8.662;2023-09-18T14:27:39;2.70;;;1.20;;
11893;SDS011;6006;49.696;8.662;2023-09-18T14:30:05;1.98;;;0.80;;
11893;SDS011;6006;49.696;8.662;2023-09-18T14:32:35;4.57;;;1.02;;
11893;SDS011;6006;49.696;8.662;2023-09-18T14:35:02;3.20;;;0.82;;
11893;SDS011;6006;49.696;8.662;2023-09-18T14:37:30;1.65;;;1.17;;
11893;SDS011;6006;49.696;8.662;2023-09-18T14:39:57;1.90;;;0.90;;
11893;SDS011;6006;49.696;8.662;2023-09-18T14:42:24;2.10;;;0.88;;
11893;SDS011;6006;49.696;8.662;2023-09-18T14:44:51;1.50;;;0.85;;
11893;SDS011;6006;49.696;8.662;2023-09-18T14:47:17;1.35;;;0.75;;
11893;SDS011;6006;49.696;8.662;2023-09-18T14:49:46;0.95;;;0.95;;
11893;SDS011;6006;49.696;8.662;2023-09-18T14:52:13;1.52;;;0.50;;
11893;SDS011;6006;49.696;8.662;2023-09-18T14:54:41;1.00;;;0.82;;
11893;SDS011;6006;49.696;8.662;2023-09-18T14:57:08;1.83;;;0.80;;
11893;SDS011;6006;49.696;8.662;2023-09-18T14:59:35;4.72;;;1.20;;
11893;SDS011;6006;49.696;8.662;2023-09-18T15:02:03;1.70;;;0.98;;
11893;SDS011;6006;49.696;8.662;2023-09-18T15:04:31;0.82;;;0.82;;
11893;SDS011;6006;49.696;8.662;2023-09-18T15:06:59;5.05;;;1.15;;
11893;SDS011;6006;49.696;8.662;2023-09-18T15:09:26;1.05;;;0.93;;